Time;durP1;ratioP1;P1;durP2;ratioP2;P2;SDS_P1;SDS_P2;PMS_P1;PMS_P2;Temp;Humidity;BMP_temperature;BMP_pressure;BME280_temperature;BME280_humidity;BME280_pressure;Samples;Min_cycle;Max_cycle;Signal;HPM_P1;HPM_P2
2022/06/25 00:01:32;;;;;;;13.82;8.77;;;;;;;17.35;100.00;100506.69;4991287;28;20109;-72
2022/06/25 00:03:58;;;;;;;10.48;8.05;;;;;;;17.29;100.00;100494.84;4988160;28;20057;-75
2022/06/25 00:06:23;;;;;;;9.65;8.30;;;;;;;17.33;100.00;100510.63;4987094;28;21377;-74
2022/06/25 00:08:50;;;;;;;12.43;8.47;;;;;;;17.34;100.00;100512.28;5019871;28;20026;-74
2022/06/25 00:14:08;;;;;;;10.02;8.25;;;;;;;17.13;100.00;100514.19;4984218;28;20034;-74
2022/06/25 00:16:34;;;;;;;12.77;9.23;;;;;;;17.15;100.00;100511.31;4979581;28;20125;-74
2022/06/25 00:19:00;;;;;;;11.50;8.98;;;;;;;17.03;100.00;100520.03;4987977;28;20026;-73
2022/06/25 00:21:26;;;;;;;9.77;8.00;;;;;;;17.04;100.00;100528.94;5003090;28;20035;-74
2022/06/25 00:23:51;;;;;;;10.40;8.53;;;;;;;16.99;100.00;100521.50;4988071;28;20026;-74
2022/06/25 00:26:16;;;;;;;9.97;8.27;;;;;;;16.95;100.00;100524.81;5019378;28;20046;-74
2022/06/25 00:28:42;;;;;;;10.83;8.70;;;;;;;17.00;100.00;100533.13;5019544;28;20037;-74
2022/06/25 00:31:07;;;;;;;10.60;8.47;;;;;;;17.02;100.00;100539.13;5019125;28;20053;-75
2022/06/25 00:33:33;;;;;;;9.70;8.47;;;;;;;17.01;100.00;100530.19;5019378;28;20032;-73
2022/06/25 00:35:58;;;;;;;12.27;9.67;;;;;;;16.93;100.00;100513.41;4978387;28;20045;-74
2022/06/25 00:38:24;;;;;;;13.97;10.07;;;;;;;17.03;100.00;100530.00;5019448;28;20409;-75
2022/06/25 00:40:50;;;;;;;12.35;10.27;;;;;;;17.01;100.00;100530.19;4986431;28;20124;-74
2022/06/25 00:43:15;;;;;;;12.73;10.13;;;;;;;17.00;100.00;100528.56;5002656;28;20089;-75
2022/06/25 00:45:44;;;;;;;11.63;10.20;;;;;;;17.00;100.00;100527.72;4986206;28;20034;-75
2022/06/25 00:48:09;;;;;;;13.07;10.48;;;;;;;17.00;100.00;100533.13;4987606;28;20088;-73
2022/06/25 00:50:35;;;;;;;11.73;8.93;;;;;;;16.96;100.00;100521.09;4987443;28;20041;-74
2022/06/25 00:53:04;;;;;;;10.93;9.73;;;;;;;17.01;100.00;100535.59;5019239;28;20407;-75
2022/06/25 00:55:30;;;;;;;14.38;11.15;;;;;;;17.05;100.00;100536.00;5019092;28;20061;-74
2022/06/25 00:57:58;;;;;;;;;;;;;;;17.03;100.00;100532.69;4986530;28;20022;-74
2022/06/25 01:00:24;;;;;;;12.55;10.10;;;;;;;17.04;100.00;100535.19;4994017;28;19922;-74
2022/06/25 01:02:49;;;;;;;12.80;9.50;;;;;;;17.04;100.00;100529.81;4994301;28;20744;-74
2022/06/25 01:05:15;;;;;;;14.13;11.23;;;;;;;17.07;100.00;100540.16;4994062;28;20031;-74
2022/06/25 01:07:44;;;;;;;;;;;;;;;17.02;100.00;100544.50;4987846;28;20474;-74
2022/06/25 01:10:10;;;;;;;13.45;10.27;;;;;;;16.97;100.00;100536.22;5002039;28;19917;-73
2022/06/25 01:12:35;;;;;;;14.25;10.85;;;;;;;16.90;100.00;100532.72;4986045;28;20019;-74
2022/06/25 01:15:09;;;;;;;13.93;11.15;;;;;;;16.87;100.00;100540.16;4985528;28;20514;-74
2022/06/25 01:17:41;;;;;;;12.18;10.65;;;;;;;16.86;100.00;100543.09;4979178;28;20781;-74
2022/06/25 01:20:09;;;;;;;11.52;10.32;;;;;;;16.84;100.00;100537.91;5003619;28;20126;-74
2022/06/25 01:22:34;;;;;;;14.45;10.77;;;;;;;16.85;100.00;100544.94;5012923;28;20365;-74
2022/06/25 01:24:59;;;;;;;14.40;9.53;;;;;;;16.82;100.00;100550.75;4984690;28;20037;-74
2022/06/25 01:27:26;;;;;;;15.68;11.25;;;;;;;16.82;100.00;100550.75;5017714;28;20110;-74
2022/06/25 01:29:51;;;;;;;13.73;12.07;;;;;;;16.81;100.00;100545.56;4975790;28;20124;-74
2022/06/25 01:32:16;;;;;;;13.40;11.30;;;;;;;16.82;100.00;100564.25;4986184;28;20324;-73
2022/06/25 01:34:42;;;;;;;13.10;10.90;;;;;;;16.79;100.00;100561.16;4984464;28;20031;-74
2022/06/25 01:37:07;;;;;;;15.53;12.37;;;;;;;16.78;100.00;100557.56;5001378;28;20026;-74
2022/06/25 01:39:33;;;;;;;15.97;12.07;;;;;;;16.78;100.00;100557.56;4985769;28;20037;-74
2022/06/25 01:41:59;;;;;;;13.70;11.45;;;;;;;16.75;100.00;100574.16;4985010;28;20235;-74
2022/06/25 01:44:24;;;;;;;15.27;11.00;;;;;;;16.72;100.00;100585.38;5017128;28;20101;-74
2022/06/25 01:46:49;;;;;;;13.83;11.77;;;;;;;16.66;100.00;100581.63;4991998;28;20923;-74
2022/06/25 01:49:16;;;;;;;13.97;11.67;;;;;;;16.64;100.00;100582.88;4986067;28;20045;-75
2022/06/25 01:51:42;;;;;;;18.63;14.27;;;;;;;16.63;100.00;100582.03;4970543;28;20022;-74
2022/06/25 01:54:07;;;;;;;13.73;11.85;;;;;;;16.66;100.00;100591.56;4985437;28;20085;-74
2022/06/25 01:56:33;;;;;;;16.20;12.10;;;;;;;16.64;100.00;100596.34;4986188;28;20058;-75
2022/06/25 01:58:58;;;;;;;15.13;12.47;;;;;;;16.64;100.00;100588.25;4992893;28;20289;-74
2022/06/25 02:01:24;;;;;;;15.98;12.25;;;;;;;16.65;100.00;100595.31;4984340;28;20022;-74
2022/06/25 02:03:50;;;;;;;17.03;12.43;;;;;;;16.69;100.00;100601.94;4984563;28;20374;-75
2022/06/25 02:06:16;;;;;;;13.95;12.45;;;;;;;16.75;100.00;100592.22;5001014;28;20360;-75
2022/06/25 02:08:42;;;;;;;17.00;13.20;;;;;;;16.77;100.00;100604.44;4990508;28;20214;-75
2022/06/25 02:11:09;;;;;;;14.00;12.60;;;;;;;16.76;100.00;100589.28;5000755;28;20033;-74
2022/06/25 02:13:36;;;;;;;15.95;12.73;;;;;;;16.81;100.00;100594.94;4998624;28;20030;-75
2022/06/25 02:16:04;;;;;;;18.10;13.55;;;;;;;16.77;100.00;100596.34;4984604;28;20480;-74
2022/06/25 02:18:34;;;;;;;15.57;12.65;;;;;;;16.72;100.00;100588.06;4993455;28;20159;-74
2022/06/25 02:21:00;;;;;;;15.90;11.87;;;;;;;16.74;100.00;100588.69;4988346;28;20157;-74
2022/06/25 02:23:25;;;;;;;16.67;12.27;;;;;;;16.79;100.00;100599.72;5004378;28;20019;-75
2022/06/25 02:25:50;;;;;;;15.87;12.10;;;;;;;16.76;100.00;100591.97;4988149;28;20093;-75
2022/06/25 02:28:17;;;;;;;13.43;11.53;;;;;;;16.78;100.00;100600.69;5004583;28;20277;-74
2022/06/25 02:30:44;;;;;;;18.08;11.63;;;;;;;16.77;100.00;100599.06;4988176;28;20491;-74
2022/06/25 02:33:13;;;;;;;13.63;9.73;;;;;;;16.79;100.00;100613.19;4989231;28;20518;-75
2022/06/25 02:35:42;;;;;;;16.15;12.48;;;;;;;16.79;100.00;100604.28;5001693;28;20026;-76
2022/06/25 02:38:10;;;;;;;16.13;13.07;;;;;;;16.85;100.00;100608.81;5020879;28;20061;-74
2022/06/25 02:40:36;;;;;;;17.75;14.20;;;;;;;16.82;100.00;100607.38;4993153;28;20488;-74
2022/06/25 02:43:02;;;;;;;17.73;13.38;;;;;;;16.83;100.00;100617.16;4987801;28;20025;-74
2022/06/25 02:45:32;;;;;;;20.55;13.98;;;;;;;16.82;100.00;100614.63;5000920;28;20488;-74
2022/06/25 02:47:58;;;;;;;;;;;;;;;16.86;100.00;100613.19;4996755;28;20084;-74
2022/06/25 02:50:24;;;;;;;19.67;14.73;;;;;;;16.81;100.00;100613.81;5003627;28;19917;-74
2022/06/25 02:52:50;;;;;;;19.10;15.50;;;;;;;16.75;100.00;100598.44;4987858;28;20046;-74
2022/06/25 02:55:17;;;;;;;20.02;13.82;;;;;;;16.80;100.00;100614.84;4971495;28;20031;-75
2022/06/25 03:00:38;;;;;;;24.13;17.42;;;;;;;16.79;100.00;100613.19;5020518;28;20392;-74
2022/06/25 03:03:03;;;;;;;28.77;19.77;;;;;;;16.83;100.00;100605.50;4988723;28;20029;-75
2022/06/25 03:05:29;;;;;;;28.00;18.83;;;;;;;16.84;100.00;100610.69;4984498;28;20039;-74
2022/06/25 03:07:54;;;;;;;26.15;18.42;;;;;;;16.85;100.00;100604.25;4999270;28;20748;-74
2022/06/25 03:10:20;;;;;;;29.10;19.35;;;;;;;16.85;100.00;100601.56;4979720;28;20114;-75
2022/06/25 03:12:45;;;;;;;35.33;24.23;;;;;;;16.87;100.00;100596.78;4987413;28;20387;-75
2022/06/25 03:15:17;;;;;;;43.42;27.17;;;;;;;16.96;100.00;100593.91;4995386;28;20041;-74
2022/06/25 03:17:42;;;;;;;40.63;26.33;;;;;;;17.06;100.00;100597.00;4993523;28;20030;-74
2022/06/25 03:20:26;;;;;;;44.15;27.30;;;;;;;17.09;100.00;100596.56;4988808;28;20040;-75
2022/06/25 03:22:54;;;;;;;43.55;25.02;;;;;;;17.16;100.00;100586.63;4987322;28;20542;-74
2022/06/25 03:25:20;;;;;;;45.20;26.13;;;;;;;17.19;100.00;100586.19;4986061;28;20018;-75
2022/06/25 03:27:45;;;;;;;36.60;25.57;;;;;;;17.21;100.00;100589.53;4985949;28;20562;-75
2022/06/25 03:30:13;;;;;;;34.85;23.23;;;;;;;17.21;100.00;100589.53;5017993;28;20560;-74
2022/06/25 03:32:40;;;;;;;36.42;23.45;;;;;;;17.29;100.00;100596.56;4988595;28;20048;-76
2022/06/25 03:35:41;;;;;;;28.58;19.60;;;;;;;17.37;100.00;100606.28;4984900;28;20040;-75
2022/06/25 03:38:17;;;;;;;32.70;23.17;;;;;;;17.24;100.00;100605.28;5004556;28;20193;-74
2022/06/25 03:40:44;;;;;;;32.97;20.67;;;;;;;17.32;100.00;100616.88;4986533;28;20030;-75
2022/06/25 03:43:11;;;;;;;29.83;19.20;;;;;;;17.34;100.00;100625.59;4995435;28;20029;-75
2022/06/25 03:45:39;;;;;;;30.40;21.70;;;;;;;17.39;100.00;100626.63;4970765;28;20034;-75
2022/06/25 03:48:06;;;;;;;30.77;20.52;;;;;;;17.45;100.00;100633.88;5003357;28;20418;-75
2022/06/25 03:50:36;;;;;;;34.65;20.33;;;;;;;17.49;100.00;100628.91;4986543;28;20034;-75
2022/06/25 03:53:02;;;;;;;29.87;21.37;;;;;;;17.55;100.00;100632.63;5003097;28;20042;-75
2022/06/25 03:55:27;;;;;;;30.65;21.25;;;;;;;17.56;100.00;100628.88;4986342;28;20026;-75
2022/06/25 03:57:53;;;;;;;26.95;18.90;;;;;;;17.54;100.00;100626.41;4986684;28;20034;-75
2022/06/25 04:00:22;;;;;;;23.17;17.63;;;;;;;17.55;100.00;100627.22;4978948;28;20045;-75
2022/06/25 04:02:56;;;;;;;28.55;18.48;;;;;;;17.56;100.00;100629.72;4971633;28;20042;-75
2022/06/25 04:05:28;;;;;;;34.17;19.63;;;;;;;17.57;100.00;100631.38;4987479;28;20175;-75
2022/06/25 04:07:57;;;;;;;33.70;20.08;;;;;;;17.53;100.00;100630.13;4978333;28;20030;-75
2022/06/25 04:10:22;;;;;;;22.77;17.37;;;;;;;17.57;100.00;100636.78;4986275;28;20509;-75
2022/06/25 04:12:48;;;;;;;33.23;20.53;;;;;;;17.56;100.00;100640.53;4987843;28;20475;-75
2022/06/25 04:15:13;;;;;;;31.83;22.15;;;;;;;17.63;100.00;100657.53;4978329;28;20161;-75
2022/06/25 04:17:39;;;;;;;28.60;19.58;;;;;;;17.65;100.00;100650.06;4992198;28;20184;-75
2022/06/25 04:20:07;;;;;;;36.45;22.48;;;;;;;17.79;100.00;100667.03;4970077;28;20022;-75
2022/06/25 04:22:33;;;;;;;33.50;22.85;;;;;;;17.95;100.00;100681.97;5002723;28;20030;-76
2022/06/25 04:25:01;;;;;;;28.42;21.77;;;;;;;17.98;100.00;100680.72;4990588;28;20096;-75
2022/06/25 04:30:10;;;;;;;27.65;21.52;;;;;;;18.07;100.00;100665.94;4999794;28;20499;-74
2022/06/25 04:32:43;;;;;;;28.95;20.13;;;;;;;18.11;100.00;100654.50;4992222;28;20025;-75
2022/06/25 04:35:14;;;;;;;27.88;20.60;;;;;;;18.25;100.00;100655.25;4993800;28;20027;-75
2022/06/25 04:37:42;;;;;;;30.45;19.88;;;;;;;18.38;100.00;100665.19;4975444;28;20054;-75
2022/06/25 04:40:09;;;;;;;26.02;19.25;;;;;;;18.49;100.00;100661.78;5001979;28;20169;-75
2022/06/25 04:42:35;;;;;;;;;;;;;;;18.68;100.00;100672.69;4970195;28;20037;-74
2022/06/25 04:45:00;;;;;;;22.95;18.50;;;;;;;18.73;100.00;100664.75;5010121;28;19913;-74
2022/06/25 04:47:27;;;;;;;27.80;20.42;;;;;;;18.65;100.00;100656.91;5001658;28;20030;-75
2022/06/25 04:50:08;;;;;;;31.40;21.13;;;;;;;18.86;100.00;100667.41;4985362;28;20054;-75
2022/06/25 04:52:33;;;;;;;26.27;20.50;;;;;;;18.95;100.00;100670.69;4985543;28;20511;-75
2022/06/25 04:54:59;;;;;;;24.33;18.52;;;;;;;19.11;100.00;100670.13;4985107;28;20755;-75
2022/06/25 04:57:25;;;;;;;25.60;19.02;;;;;;;19.20;100.00;100673.41;4969211;28;20149;-74
2022/06/25 05:00:23;;;;;;;25.48;18.75;;;;;;;19.42;100.00;100671.09;4979182;28;20502;-74
2022/06/25 05:02:48;;;;;;;19.20;13.43;;;;;;;19.64;100.00;100684.22;4985026;28;20030;-76
2022/06/25 05:05:15;;;;;;;26.90;19.75;;;;;;;19.71;100.00;100675.00;4985271;28;20030;-75
2022/06/25 05:07:40;;;;;;;24.40;16.65;;;;;;;19.78;100.00;100667.66;4991214;28;20045;-74
2022/06/25 05:10:06;;;;;;;19.80;15.67;;;;;;;19.67;100.00;100649.41;4984741;28;20536;-75
2022/06/25 05:15:15;;;;;;;23.58;15.00;;;;;;;20.01;100.00;100669.66;4985016;28;20038;-73
2022/06/25 05:17:41;;;;;;;18.00;14.73;;;;;;;20.04;100.00;100657.53;4985180;28;20077;-74
2022/06/25 05:20:09;;;;;;;20.25;15.35;;;;;;;19.93;100.00;100669.16;5017615;28;20039;-75
2022/06/25 05:22:34;;;;;;;16.83;14.68;;;;;;;20.12;100.00;100681.63;4984838;28;20019;-74
2022/06/25 05:25:00;;;;;;;24.80;14.90;;;;;;;20.39;100.00;100670.44;4984852;28;20510;-74
2022/06/25 05:27:27;;;;;;;20.30;12.47;;;;;;;20.64;100.00;100673.88;5001528;28;20022;-74
2022/06/25 05:29:53;;;;;;;24.65;14.23;;;;;;;20.95;100.00;100666.53;4985524;28;20146;-75
2022/06/25 05:32:19;;;;;;;20.17;13.43;;;;;;;20.91;100.00;100637.38;4969246;28;20113;-75
2022/06/25 05:34:44;;;;;;;20.45;11.60;;;;;;;21.18;100.00;100635.88;4991458;28;20197;-75
2022/06/25 05:37:09;;;;;;;19.60;11.77;;;;;;;21.31;100.00;100615.81;5001343;28;20112;-75
2022/06/25 05:39:35;;;;;;;18.00;11.13;;;;;;;21.70;100.00;100616.16;4984448;28;20034;-75
2022/06/25 05:42:00;;;;;;;15.87;9.23;;;;;;;22.49;100.00;100618.28;4984413;28;20116;-74
2022/06/25 05:44:26;;;;;;;17.10;12.20;;;;;;;23.02;100.00;100540.78;4984968;28;20030;-75
2022/06/25 05:46:51;;;;;;;14.27;10.23;;;;;;;23.60;100.00;100523.03;4984922;28;20500;-75
2022/06/25 05:49:16;;;;;;;17.73;11.23;;;;;;;23.73;100.00;100488.28;4985282;28;20042;-75
2022/06/25 05:51:42;;;;;;;14.40;10.30;;;;;;;23.86;100.00;100462.53;4984942;28;20037;-76
2022/06/25 05:54:07;;;;;;;15.67;10.80;;;;;;;24.26;100.00;100423.94;4986196;28;20035;-76
2022/06/25 05:56:32;;;;;;;18.47;11.13;;;;;;;24.14;100.00;100494.16;4985027;28;20678;-75
2022/06/25 05:58:58;;;;;;;15.82;10.27;;;;;;;24.17;100.00;100441.84;4986208;28;20040;-76
2022/06/25 06:01:23;;;;;;;19.00;10.37;;;;;;;24.76;100.00;100428.09;4984911;28;20027;-76
2022/06/25 06:03:49;;;;;;;15.13;9.70;;;;;;;24.65;100.00;100401.81;4984906;28;20079;-75
2022/06/25 06:06:14;;;;;;;11.37;8.73;;;;;;;24.64;100.00;100441.94;4986141;28;20054;-76
2022/06/25 06:08:39;;;;;;;13.93;9.50;;;;;;;24.60;100.00;100413.53;5001052;28;20372;-76
2022/06/25 06:11:05;;;;;;;14.20;10.63;;;;;;;24.84;100.00;100385.81;4976715;28;20046;-75
2022/06/25 06:13:30;;;;;;;14.03;10.43;;;;;;;24.91;100.00;100396.47;4986049;28;20296;-75
2022/06/25 06:15:55;;;;;;;16.07;11.90;;;;;;;24.00;100.00;100410.09;4992612;28;20100;-76
2022/06/25 06:18:21;;;;;;;13.27;9.57;;;;;;;24.44;100.00;100497.19;4986068;28;20364;-76
2022/06/25 06:20:46;;;;;;;13.33;9.83;;;;;;;25.17;100.00;100406.44;4985955;28;20715;-76
2022/06/25 06:23:12;;;;;;;9.52;8.38;;;;;;;26.03;100.00;100424.13;4986184;28;20313;-76
2022/06/25 06:25:37;;;;;;;11.00;8.10;;;;;;;25.93;100.00;100336.63;4985922;28;20037;-76
2022/06/25 06:28:03;;;;;;;10.88;7.95;;;;;;;26.16;100.00;100362.59;4986159;28;20038;-76
2022/06/25 06:30:28;;;;;;;12.73;8.55;;;;;;;26.59;100.00;100299.28;5000934;28;20026;-76
2022/06/25 06:32:54;;;;;;;9.80;8.38;;;;;;;26.00;100.00;100315.28;5017024;28;20081;-75
2022/06/25 06:35:20;;;;;;;17.55;10.45;;;;;;;24.87;100.00;100327.97;4985654;28;20026;-76
2022/06/25 06:37:46;;;;;;;13.15;8.98;;;;;;;25.61;100.00;100432.53;4985799;28;20156;-75
2022/06/25 06:40:11;;;;;;;15.43;8.77;;;;;;;26.17;100.00;100402.53;4985673;28;20502;-76
2022/06/25 06:42:37;;;;;;;12.48;8.00;;;;;;;25.52;100.00;100391.28;4985488;28;20068;-76
2022/06/25 06:45:05;;;;;;;13.32;10.15;;;;;;;24.32;100.00;100488.31;4992589;28;20050;-76
2022/06/25 06:47:30;;;;;;;11.50;8.02;;;;;;;25.74;100.00;100519.50;4985802;28;20045;-76
2022/06/25 06:49:56;;;;;;;11.60;8.00;;;;;;;26.37;100.00;100442.75;4992467;28;20019;-76
2022/06/25 06:52:21;;;;;;;12.30;9.15;;;;;;;26.49;100.00;100391.25;4989898;28;20038;-76
2022/06/25 06:54:46;;;;;;;10.93;7.20;;;;;;;26.25;100.00;100376.53;4985368;28;20534;-76
2022/06/25 06:57:12;;;;;;;13.55;9.75;;;;;;;25.92;100.00;100325.94;4985648;28;20045;-75
2022/06/25 06:59:37;;;;;;;11.63;8.65;;;;;;;24.70;100.00;100477.44;4987364;28;20026;-76
2022/06/25 07:02:03;;;;;;;10.68;8.00;;;;;;;25.18;100.00;100530.22;4988119;28;20031;-76
2022/06/25 07:04:28;;;;;;;13.87;10.17;;;;;;;25.36;100.00;100507.09;4989096;28;20491;-76
2022/06/25 07:06:53;;;;;;;12.50;9.63;;;;;;;25.31;100.00;100466.06;4989095;28;20297;-76
2022/06/25 07:09:19;;;;;;;17.57;11.03;;;;;;;25.13;100.00;100454.50;4989281;28;20276;-76
2022/06/25 07:11:44;;;;;;;13.90;10.20;;;;;;;24.62;100.00;100443.28;4989104;28;20872;-76
2022/06/25 07:14:09;;;;;;;14.90;8.60;;;;;;;24.98;100.00;100608.19;4989036;28;20038;-76
2022/06/25 07:16:35;;;;;;;12.68;8.07;;;;;;;25.61;100.00;100522.75;4988905;28;20281;-75
2022/06/25 07:19:02;;;;;;;10.95;8.27;;;;;;;24.93;100.00;100435.28;5004102;28;20506;-76
2022/06/25 07:21:27;;;;;;;;;;;;;;;25.44;100.00;100503.81;5004328;28;20044;-76
2022/06/25 07:23:53;;;;;;;9.13;8.10;;;;;;;24.76;100.00;100419.09;4987696;28;19909;-76
2022/06/25 07:26:20;;;;;;;9.00;8.02;;;;;;;24.70;100.00;100573.84;4988671;28;20042;-76
2022/06/25 07:28:47;;;;;;;9.63;8.30;;;;;;;24.90;100.00;100575.88;5020591;28;20065;-76
2022/06/25 07:31:13;;;;;;;10.80;6.72;;;;;;;25.11;100.00;100565.91;4988673;28;20066;-76
2022/06/25 07:33:38;;;;;;;11.25;7.35;;;;;;;25.29;100.00;100512.78;5020129;28;20062;-76
2022/06/25 07:36:04;;;;;;;8.02;5.93;;;;;;;25.93;100.00;100554.59;5002898;28;20066;-76
2022/06/25 07:38:30;;;;;;;12.32;7.35;;;;;;;25.80;100.00;100471.97;5012436;28;20716;-76
2022/06/25 07:40:55;;;;;;;11.85;7.07;;;;;;;26.65;100.00;100404.94;4987082;28;20042;-75
2022/06/25 07:43:21;;;;;;;13.02;7.60;;;;;;;26.17;100.00;100344.25;4987024;28;20041;-76
2022/06/25 07:45:46;;;;;;;7.82;6.80;;;;;;;25.99;100.00;100439.47;4988372;28;20038;-76
2022/06/25 07:48:12;;;;;;;10.40;8.35;;;;;;;25.41;100.00;100491.50;5003699;28;20049;-76
2022/06/25 07:53:21;;;;;;;11.45;9.07;;;;;;;25.15;100.00;100528.00;5019735;28;20042;-76
2022/06/25 07:55:47;;;;;;;10.43;6.17;;;;;;;25.46;100.00;100534.44;4988009;28;20404;-76
2022/06/25 07:58:12;;;;;;;7.50;6.65;;;;;;;26.01;100.00;100489.25;4988260;28;20069;-76
2022/06/25 08:00:38;;;;;;;9.27;6.80;;;;;;;26.16;100.00;100488.44;4995067;28;20026;-76
2022/06/25 08:03:04;;;;;;;;;;;;;;;25.76;100.00;100439.97;4988595;28;20034;-76
2022/06/25 08:05:29;;;;;;;11.40;7.15;;;;;;;26.26;100.00;100599.81;4994753;28;19921;-76
2022/06/25 08:07:54;;;;;;;12.15;7.32;;;;;;;26.05;100.00;100397.31;4988161;28;20615;-76
2022/06/25 08:10:21;;;;;;;10.95;7.20;;;;;;;26.23;100.00;100406.91;4987453;28;20496;-75
2022/06/25 08:12:47;;;;;;;9.18;6.20;;;;;;;26.53;100.00;100355.94;4987690;28;20061;-76
2022/06/25 08:15:14;;;;;;;9.20;7.25;;;;;;;26.00;99.09;100205.06;4987728;28;20510;-77
2022/06/25 08:17:39;;;;;;;;;;;;;;;25.96;100.00;100275.09;5019972;28;20373;-76
2022/06/25 08:20:05;;;;;;;11.93;6.57;;;;;;;25.87;100.00;100370.53;4987326;28;20075;-76
2022/06/25 08:22:30;;;;;;;10.93;7.35;;;;;;;25.32;100.00;100317.44;4988007;28;20056;-76
2022/06/25 08:24:59;;;;;;;7.85;6.18;;;;;;;25.70;100.00;100538.34;4987672;28;20029;-76
2022/06/25 08:27:24;;;;;;;8.65;7.45;;;;;;;26.30;100.00;100459.44;4987942;28;20100;-75
2022/06/25 08:29:50;;;;;;;8.32;7.15;;;;;;;25.66;100.00;100277.56;4987695;28;20101;-75
2022/06/25 08:32:15;;;;;;;11.70;8.45;;;;;;;24.93;100.00;100268.72;4987710;28;20049;-75
2022/06/25 08:34:40;;;;;;;8.68;6.25;;;;;;;25.40;100.00;100467.19;4992212;28;20149;-76
2022/06/25 08:37:06;;;;;;;10.48;6.72;;;;;;;25.62;100.00;100464.25;4987548;28;20113;-75
2022/06/25 08:39:32;;;;;;;10.65;7.50;;;;;;;26.41;100.00;100405.53;4994389;28;20025;-76
2022/06/25 08:42:01;;;;;;;11.85;7.00;;;;;;;26.35;100.00;100370.22;4987709;28;20511;-75
2022/06/25 08:44:29;;;;;;;7.30;6.07;;;;;;;26.42;100.00;100373.50;4987115;28;20029;-75
2022/06/25 08:46:56;;;;;;;8.13;6.05;;;;;;;26.06;100.00;100472.84;4987280;28;20113;-75
2022/06/25 08:49:23;;;;;;;8.00;6.70;;;;;;;26.25;100.00;100365.59;4983550;28;20088;-76
2022/06/25 08:51:52;;;;;;;13.93;6.70;;;;;;;26.56;100.00;100380.06;5018960;28;20080;-76
2022/06/25 08:54:19;;;;;;;7.10;6.10;;;;;;;26.57;100.00;100449.31;5002350;28;20395;-76
2022/06/25 08:56:45;;;;;;;7.20;6.03;;;;;;;25.85;100.00;100439.16;5018745;28;20153;-75
2022/06/25 08:59:11;;;;;;;;;;;;;;;27.21;100.00;100555.47;4987797;28;20029;-76
2022/06/25 09:01:36;;;;;;;6.55;5.78;;;;;;;27.49;94.19;100355.81;4994251;28;19913;-76
2022/06/25 09:04:02;;;;;;;11.73;5.75;;;;;;;26.92;100.00;100390.88;4986109;28;20018;-76
2022/06/25 09:06:28;;;;;;;;;;;;;;;26.48;100.00;100337.63;4987509;28;20058;-76
2022/06/25 09:09:13;;;;;;;8.25;5.78;;;;;;;26.57;100.00;100430.13;4986136;28;20204;-76
2022/06/25 09:12:05;;;;;;;6.50;5.10;;;;;;;26.64;100.00;100395.09;4983977;28;20096;-75
2022/06/25 09:14:32;;;;;;;10.95;6.47;;;;;;;27.42;97.12;100400.00;4994299;28;20043;-76
2022/06/25 09:17:04;;;;;;;5.80;4.47;;;;;;;27.55;91.52;100343.69;4986735;28;20033;-76
2022/06/25 09:19:40;;;;;;;6.47;4.30;;;;;;;27.37;89.99;100298.63;5001854;28;20062;-75
2022/06/25 09:22:11;;;;;;;5.38;4.63;;;;;;;27.43;88.60;100308.41;4983878;28;20050;-76
2022/06/25 09:24:47;;;;;;;4.93;4.28;;;;;;;27.90;77.51;100185.44;4986778;28;20492;-75
2022/06/25 09:27:16;;;;;;;5.07;3.63;;;;;;;27.97;77.65;100183.97;4983106;28;20555;-76
2022/06/25 09:29:44;;;;;;;6.20;4.13;;;;;;;26.81;77.17;99989.47;5018221;28;20052;-76
2022/06/25 09:32:10;;;;;;;5.55;3.90;;;;;;;27.48;82.85;100252.75;4986665;28;20044;-76
2022/06/25 09:34:37;;;;;;;4.90;3.78;;;;;;;27.22;76.01;100063.88;4987131;28;20041;-76
2022/06/25 09:37:20;;;;;;;6.38;4.28;;;;;;;27.39;81.74;100225.13;4977040;28;20042;-76
2022/06/25 09:39:47;;;;;;;7.47;4.07;;;;;;;28.35;79.43;100339.69;4986741;28;20515;-76
2022/06/25 09:42:20;;;;;;;4.10;3.70;;;;;;;28.90;73.72;100303.66;4986155;28;20688;-76
2022/06/25 09:44:47;;;;;;;4.43;3.33;;;;;;;29.41;68.07;100226.75;5018657;28;20435;-77
2022/06/25 09:47:13;;;;;;;4.07;3.15;;;;;;;30.08;64.19;100220.84;4985486;28;20037;-76
2022/06/25 09:49:40;;;;;;;5.53;2.42;;;;;;;30.08;53.35;99834.72;4985474;28;20035;-77
2022/06/25 09:52:05;;;;;;;;;;;;;;;30.15;52.99;99843.34;4987561;28;20041;-77
2022/06/25 09:54:31;;;;;;;5.00;2.60;;;;;;;28.88;56.48;99825.13;4986749;28;19917;-77
2022/06/25 09:56:59;;;;;;;15.50;14.00;;;;;;;28.98;57.91;99919.13;4977483;28;20464;-77
2022/06/25 09:59:28;;;;;;;2.22;2.03;;;;;;;29.20;52.70;99722.50;4986941;28;20038;-76
2022/06/25 10:01:54;;;;;;;8.10;7.28;;;;;;;29.56;49.90;99675.69;4985471;28;20029;-77
2022/06/25 10:04:21;;;;;;;35.72;31.95;;;;;;;29.21;60.12;100027.25;4986627;28;20034;-77
2022/06/25 10:06:49;;;;;;;46.17;41.22;;;;;;;29.27;57.96;99948.28;4985505;28;20027;-77
2022/06/25 10:09:17;;;;;;;4.28;3.85;;;;;;;28.51;56.42;99750.91;4993705;28;20969;-78
2022/06/25 10:11:43;;;;;;;5.38;3.53;;;;;;;29.14;55.69;99892.19;4993690;28;20109;-77
2022/06/25 10:14:08;;;;;;;4.95;2.50;;;;;;;29.94;56.80;100087.16;4993282;28;20121;-77
2022/06/25 10:16:33;;;;;;;;;;;;;;;30.21;55.93;100067.81;5001790;28;20022;-77
2022/06/25 10:19:00;;;;;;;;;;;;;;;30.21;56.78;100067.81;4977487;28;19913;-76
2022/06/25 10:21:25;;;;;;;3.33;2.60;;;;;;;30.34;53.87;99961.53;4986335;28;20420;-77
2022/06/25 10:23:52;;;;;;;;;;;;;;;30.94;50.21;99921.69;5001709;28;20034;-76
2022/06/25 10:26:19;;;;;;;8.55;6.25;;;;;;;31.46;53.85;100161.00;5001485;28;19948;-76
2022/06/25 10:28:45;;;;;;;2.70;2.50;;;;;;;31.44;50.82;100006.03;4993415;28;20027;-76
2022/06/25 10:31:14;;;;;;;4.07;2.92;;;;;;;30.25;53.78;99908.34;5017575;28;20041;-77
2022/06/25 10:33:58;;;;;;;10.98;7.57;;;;;;;29.29;54.71;99769.28;4986488;28;20042;-77
2022/06/25 10:36:46;;;;;;;4.85;3.40;;;;;;;30.08;54.24;99933.81;4989727;28;20515;-76
2022/06/25 10:39:27;;;;;;;2.72;2.17;;;;;;;30.17;50.74;99788.81;4987672;28;20407;-77
2022/06/25 10:45:04;;;;;;;3.40;3.00;;;;;;;29.54;50.52;99756.84;5016742;28;20049;-77
2022/06/25 10:47:50;;;;;;;3.72;2.30;;;;;;;29.31;49.27;99662.59;4981703;28;20038;-76
2022/06/25 10:50:21;;;;;;;3.88;2.58;;;;;;;29.28;52.71;99867.44;4989412;28;20042;-76
2022/06/25 10:53:02;;;;;;;3.50;2.22;;;;;;;29.73;52.73;99952.78;5004693;28;20631;-76
2022/06/25 10:55:34;;;;;;;4.10;1.90;;;;;;;30.00;48.91;99810.75;5020447;28;20034;-76
2022/06/25 10:58:15;;;;;;;3.40;2.30;;;;;;;30.33;48.80;99884.78;5021023;28;20196;-76
2022/06/25 11:00:51;;;;;;;2.55;2.10;;;;;;;30.27;49.84;99917.13;5014429;28;20042;-76
2022/06/25 11:03:37;;;;;;;3.63;1.83;;;;;;;30.66;48.75;99930.13;4989401;28;20042;-76
2022/06/25 11:06:24;;;;;;;2.13;1.70;;;;;;;30.48;48.34;99882.44;5016937;28;20069;-76
2022/06/25 11:08:51;;;;;;;2.83;1.60;;;;;;;30.64;46.94;99824.97;4982798;28;20484;-76
2022/06/25 11:11:30;;;;;;;2.75;2.05;;;;;;;30.50;44.70;99648.03;4989054;28;20114;-76
2022/06/25 11:13:57;;;;;;;2.35;1.83;;;;;;;30.26;44.90;99671.31;4988990;28;20093;-76
2022/06/25 11:16:23;;;;;;;1.77;1.40;;;;;;;30.54;42.97;99577.41;5004203;28;20022;-76
2022/06/25 11:18:55;;;;;;;;;;;;;;;30.71;43.17;99638.00;4988936;28;20392;-76
2022/06/25 11:21:34;;;;;;;2.70;1.50;;;;;;;31.23;44.85;99884.47;4988503;28;19917;-76
2022/06/25 11:24:06;;;;;;;2.30;1.58;;;;;;;31.30;42.16;99673.34;4995533;28;20128;-76
2022/06/25 11:29:41;;;;;;;1.60;1.50;;;;;;;30.65;43.60;99653.09;4987232;28;20034;-76
2022/06/25 11:32:08;;;;;;;2.53;1.70;;;;;;;31.51;41.87;99708.50;4985926;28;20399;-76
2022/06/25 11:34:34;;;;;;;1.55;1.45;;;;;;;30.98;41.66;99558.94;4988703;28;20022;-76
2022/06/25 11:37:11;;;;;;;1.50;1.27;;;;;;;30.78;40.44;99449.38;5003770;28;20041;-75